Time;durP1;ratioP1;P1;durP2;ratioP2;P2;SDS_P1;SDS_P2;PMS_P1;PMS_P2;Temp;Humidity;BMP_temperature;BMP_pressure;BME280_temperature;BME280_humidity;BME280_pressure;Samples;Min_cycle;Max_cycle;Signal;HPM_P1;HPM_P2
2022/10/04 03:01:24;;;;;;;0.70;0.70;;;10.10;80.60;;;;;;5798965;23;20893;-73
2022/10/04 03:03:51;;;;;;;0.90;0.90;;;10.10;80.50;;;;;;4977104;28;20446;-72
2022/10/04 03:06:21;;;;;;;0.80;0.80;;;10.10;80.50;;;;;;4976892;28;20964;-72
2022/10/04 03:08:51;;;;;;;0.80;0.80;;;10.10;80.10;;;;;;4977146;28;20447;-72
2022/10/04 03:11:21;;;;;;;0.93;0.93;;;10.10;80.10;;;;;;4977050;28;20474;-72
2022/10/04 03:13:52;;;;;;;1.00;0.90;;;10.00;80.20;;;;;;4977318;28;20455;-72
2022/10/04 03:16:21;;;;;;;0.77;0.77;;;10.00;80.10;;;;;;4978479;28;20434;-72
2022/10/04 03:18:49;;;;;;;1.03;1.00;;;10.00;80.50;;;;;;4976849;28;20511;-72
2022/10/04 03:21:21;;;;;;;0.80;0.80;;;10.00;80.60;;;;;;4976722;28;20528;-72
2022/10/04 03:23:50;;;;;;;1.00;0.90;;;10.00;81.00;;;;;;4977119;28;20439;-73
2022/10/04 03:26:27;;;;;;;0.90;0.80;;;9.90;81.50;;;;;;4976848;28;20486;-72
2022/10/04 03:28:54;;;;;;;0.80;0.80;;;9.90;81.50;;;;;;4976498;28;20911;-73
2022/10/04 03:31:22;;;;;;;1.10;1.00;;;9.90;81.80;;;;;;4976593;28;20470;-71
2022/10/04 03:33:49;;;;;;;0.90;0.90;;;9.90;82.40;;;;;;4976668;28;20454;-72
2022/10/04 03:36:18;;;;;;;0.90;0.90;;;9.90;82.60;;;;;;4976579;28;20450;-72
2022/10/04 03:38:47;;;;;;;0.80;0.80;;;10.00;82.60;;;;;;4976533;28;20486;-72
2022/10/04 03:41:15;;;;;;;0.80;0.80;;;10.00;82.40;;;;;;4976456;28;20493;-71
2022/10/04 03:43:44;;;;;;;0.90;0.90;;;10.00;82.50;;;;;;4976505;28;20457;-73
2022/10/04 03:46:13;;;;;;;0.73;0.73;;;10.10;82.50;;;;;;4976392;28;20504;-72
2022/10/04 03:48:44;;;;;;;0.87;0.87;;;10.10;82.50;;;;;;4976424;28;20790;-72
2022/10/04 03:51:14;;;;;;;0.90;0.90;;;10.00;83.40;;;;;;4976398;28;20466;-72
2022/10/04 03:53:44;;;;;;;0.80;0.80;;;10.10;83.10;;;;;;4976407;28;20814;-72
2022/10/04 03:56:15;;;;;;;0.70;0.70;;;10.10;82.90;;;;;;4976231;28;20447;-72
2022/10/04 03:58:43;;;;;;;1.30;0.93;;;10.10;83.70;;;;;;4976174;28;20542;-72
2022/10/04 04:01:20;;;;;;;0.97;0.87;;;10.10;84.00;;;;;;4975630;28;20898;-71
2022/10/04 04:03:57;;;;;;;0.80;0.80;;;10.10;84.20;;;;;;4976160;28;20454;-72
2022/10/04 04:06:27;;;;;;;0.80;0.80;;;10.10;84.00;;;;;;4976476;28;20485;-73
2022/10/04 04:08:57;;;;;;;0.83;0.83;;;10.20;84.00;;;;;;4976014;28;20787;-72
2022/10/04 04:11:26;;;;;;;0.83;0.80;;;10.20;84.00;;;;;;4975954;28;20466;-72
2022/10/04 04:14:00;;;;;;;0.73;0.73;;;10.20;84.00;;;;;;4975946;28;20462;-72
2022/10/04 04:16:27;;;;;;;0.87;0.77;;;10.20;84.10;;;;;;4975410;28;20438;-72
2022/10/04 04:18:59;;;;;;;1.20;1.00;;;10.10;84.90;;;;;;4975723;28;20493;-72
2022/10/04 04:21:27;;;;;;;0.80;0.80;;;10.10;85.30;;;;;;4975775;28;20478;-72
2022/10/04 04:23:58;;;;;;;0.80;0.80;;;10.20;85.20;;;;;;4975526;28;20458;-72
2022/10/04 04:26:33;;;;;;;0.90;0.90;;;10.20;85.00;;;;;;4975731;28;20445;-72
2022/10/04 04:29:06;;;;;;;1.00;0.87;;;10.30;84.90;;;;;;4975729;28;20815;-72
2022/10/04 04:31:38;;;;;;;0.77;0.77;;;10.30;84.50;;;;;;4975334;28;21052;-72
2022/10/04 04:34:16;;;;;;;1.00;1.00;;;10.30;84.40;;;;;;4975585;28;20439;-72
2022/10/04 04:36:43;;;;;;;1.77;1.00;;;10.40;84.10;;;;;;4975286;28;20968;-72
2022/10/04 04:42:00;;;;;;;0.70;0.70;;;10.30;84.30;;;;;;4975259;28;20445;-72
2022/10/04 04:44:27;;;;;;;0.70;0.70;;;10.30;84.30;;;;;;4975480;28;20549;-72
2022/10/04 04:46:55;;;;;;;0.70;0.70;;;10.20;84.30;;;;;;4975691;28;20447;-72
2022/10/04 04:49:23;;;;;;;0.90;0.90;;;10.00;85.00;;;;;;4975435;28;20517;-72
2022/10/04 04:51:52;;;;;;;0.80;0.80;;;9.90;85.50;;;;;;4975203;28;20815;-72
2022/10/04 04:54:23;;;;;;;0.93;0.90;;;9.90;85.70;;;;;;4974916;28;20830;-72
2022/10/04 04:56:52;;;;;;;1.17;0.80;;;9.90;85.30;;;;;;4975277;28;20542;-72
2022/10/04 04:59:22;;;;;;;0.83;0.83;;;9.90;85.10;;;;;;4975131;28;20576;-72
2022/10/04 05:01:49;;;;;;;0.80;0.80;;;9.80;84.40;;;;;;4974815;28;20486;-72
2022/10/04 05:04:20;;;;;;;1.00;1.00;;;9.50;85.80;;;;;;4975025;28;20450;-71
2022/10/04 05:06:58;;;;;;;1.00;0.90;;;9.30;87.00;;;;;;4975293;28;20525;-72
2022/10/04 05:09:29;;;;;;;1.00;0.83;;;9.50;86.30;;;;;;4975077;28;20462;-73
2022/10/04 05:12:06;;;;;;;1.10;0.80;;;9.70;85.30;;;;;;4974607;28;20833;-73
2022/10/04 05:14:33;;;;;;;1.00;0.90;;;9.80;84.60;;;;;;4975440;28;20440;-72
2022/10/04 05:17:00;;;;;;;0.90;0.90;;;9.90;84.00;;;;;;4974528;28;20942;-72
2022/10/04 05:19:30;;;;;;;0.90;0.90;;;9.90;83.50;;;;;;4974727;28;20482;-72
2022/10/04 05:22:00;;;;;;;1.00;1.00;;;10.00;83.20;;;;;;4974528;28;20469;-72
2022/10/04 05:24:30;;;;;;;0.90;0.90;;;10.00;82.90;;;;;;4974529;28;20875;-72
2022/10/04 05:26:59;;;;;;;0.90;0.90;;;10.10;82.70;;;;;;4973689;28;20818;-73
2022/10/04 05:29:28;;;;;;;0.80;0.80;;;10.00;82.50;;;;;;4974489;28;20509;-72
2022/10/04 05:32:03;;;;;;;0.80;0.80;;;10.00;82.20;;;;;;4974519;28;20502;-72
2022/10/04 05:34:35;;;;;;;0.90;0.80;;;10.00;82.20;;;;;;4974654;28;20492;-72
2022/10/04 05:37:19;;;;;;;0.80;0.80;;;10.00;82.20;;;;;;4974585;28;20437;-71
2022/10/04 05:39:57;;;;;;;1.00;0.90;;;10.00;82.30;;;;;;4975011;28;20517;-72
2022/10/04 05:42:30;;;;;;;0.87;0.87;;;10.00;82.30;;;;;;4974135;28;20990;-72
2022/10/04 05:44:57;;;;;;;1.20;0.87;;;10.00;82.40;;;;;;4974543;28;20430;-72
2022/10/04 05:47:28;;;;;;;0.90;0.90;;;10.10;82.20;;;;;;4974455;28;20452;-72
2022/10/04 05:49:57;;;;;;;3.57;3.47;;;10.10;81.90;;;;;;4974496;28;20500;-72
2022/10/04 05:52:32;;;;;;;2.53;2.43;;;10.20;81.90;;;;;;4974329;28;20561;-71
2022/10/04 05:55:25;;;;;;;1.03;1.03;;;10.20;81.80;;;;;;4974514;28;20499;-72
2022/10/04 05:58:17;;;;;;;0.90;0.90;;;10.30;81.40;;;;;;4974326;28;20553;-75
2022/10/04 06:00:55;;;;;;;0.80;0.80;;;10.30;81.30;;;;;;4974230;28;20486;-72
2022/10/04 06:03:37;;;;;;;0.80;0.80;;;10.30;81.00;;;;;;4974477;28;20442;-73
2022/10/04 06:06:15;;;;;;;1.10;0.90;;;10.40;80.80;;;;;;4974366;28;20447;-73
2022/10/04 06:08:52;;;;;;;0.80;0.80;;;10.40;80.80;;;;;;4974407;28;20466;-74
2022/10/04 06:11:33;;;;;;;1.00;1.00;;;10.50;80.90;;;;;;4974292;28;20473;-74
2022/10/04 06:14:39;;;;;;;0.90;0.90;;;10.60;81.20;;;;;;4974021;28;20434;-75
2022/10/04 06:17:18;;;;;;;1.00;1.00;;;10.70;81.80;;;;;;4974284;28;20457;-75
2022/10/04 06:20:19;;;;;;;0.93;0.87;;;10.80;81.80;;;;;;4974203;28;20474;-75
2022/10/04 06:22:47;;;;;;;0.80;0.80;;;10.90;81.90;;;;;;4924271;28;20472;-74
2022/10/04 06:25:22;;;;;;;0.77;0.77;;;11.00;81.90;;;;;;4974181;28;20435;-74
2022/10/04 06:27:55;;;;;;;0.80;0.80;;;11.30;81.80;;;;;;4974173;28;20481;-75
2022/10/04 06:30:21;;;;;;;0.70;0.70;;;11.50;81.30;;;;;;4974147;28;20438;-75
2022/10/04 06:33:15;;;;;;;0.70;0.70;;;11.60;80.60;;;;;;4974119;28;20474;-74
2022/10/04 06:36:07;;;;;;;0.80;0.80;;;11.70;80.10;;;;;;4974178;28;20443;-75
2022/10/04 06:38:56;;;;;;;0.93;0.70;;;11.60;80.20;;;;;;4974358;28;20881;-74
2022/10/04 06:41:43;;;;;;;0.77;0.77;;;11.40;81.20;;;;;;4977566;28;20481;-75
2022/10/04 06:44:30;;;;;;;0.70;0.70;;;11.40;81.80;;;;;;4977326;28;20847;-76
2022/10/04 06:47:10;;;;;;;1.27;0.80;;;11.20;82.00;;;;;;4977882;28;20449;-74
2022/10/04 06:49:45;;;;;;;1.03;0.90;;;11.00;82.80;;;;;;4977612;28;20441;-75
2022/10/04 06:52:39;;;;;;;0.90;0.80;;;11.00;83.50;;;;;;4977157;28;20508;-75
2022/10/04 06:55:22;;;;;;;0.77;0.77;;;10.90;84.10;;;;;;4974726;28;20454;-74
2022/10/04 06:58:08;;;;;;;1.07;0.97;;;11.00;84.40;;;;;;4977321;28;20850;-74
2022/10/04 07:00:41;;;;;;;0.87;0.87;;;11.10;83.60;;;;;;4977182;28;20785;-75
2022/10/04 07:03:15;;;;;;;1.10;1.00;;;11.10;84.00;;;;;;4977219;28;20446;-75
2022/10/04 07:05:46;;;;;;;0.80;0.80;;;10.90;83.90;;;;;;4977247;28;20433;-74
2022/10/04 07:08:29;;;;;;;0.80;0.80;;;10.90;83.80;;;;;;4977718;28;20430;-75
2022/10/04 07:10:59;;;;;;;0.70;0.70;;;10.90;84.80;;;;;;4977107;28;20470;-75
2022/10/04 07:13:40;;;;;;;0.80;0.80;;;11.20;85.10;;;;;;4977077;28;20454;-76
2022/10/04 07:16:19;;;;;;;0.80;0.80;;;11.40;84.00;;;;;;4977117;28;20474;-75
2022/10/04 07:18:59;;;;;;;0.70;0.70;;;11.40;84.10;;;;;;4976941;28;20470;-76
2022/10/04 07:21:35;;;;;;;0.80;0.80;;;11.60;83.40;;;;;;4976852;28;20602;-75
2022/10/04 07:24:02;;;;;;;0.90;0.90;;;11.60;83.40;;;;;;4976639;28;20438;-75
2022/10/04 07:26:34;;;;;;;0.80;0.80;;;11.90;83.30;;;;;;4976511;28;20946;-75
2022/10/04 07:32:04;;;;;;;0.90;0.90;;;11.90;82.50;;;;;;4973915;28;20462;-75
2022/10/04 07:34:34;;;;;;;0.80;0.80;;;11.80;82.70;;;;;;4976757;28;20430;-75
2022/10/04 07:37:09;;;;;;;0.77;0.77;;;11.60;83.60;;;;;;4976603;28;20455;-75
2022/10/04 07:39:45;;;;;;;0.90;0.90;;;11.30;84.70;;;;;;4976563;28;20474;-74
2022/10/04 07:42:21;;;;;;;1.10;1.10;;;11.20;85.30;;;;;;4976497;28;20470;-75
2022/10/04 07:44:59;;;;;;;1.40;1.40;;;11.10;85.50;;;;;;4976478;28;20437;-75
2022/10/04 07:47:28;;;;;;;1.20;1.10;;;11.00;86.00;;;;;;4976468;28;20437;-75
2022/10/04 07:49:57;;;;;;;0.90;0.90;;;10.90;86.80;;;;;;4975433;28;20545;-76
2022/10/04 07:52:44;;;;;;;1.03;1.03;;;11.00;86.20;;;;;;4975697;28;20826;-75
2022/10/04 07:55:21;;;;;;;1.00;1.00;;;11.10;86.50;;;;;;4976111;28;20922;-76
2022/10/04 07:57:58;;;;;;;1.27;0.93;;;11.10;86.80;;;;;;4976251;28;20433;-75
2022/10/04 08:00:32;;;;;;;2.80;2.70;;;11.10;86.60;;;;;;4976248;28;20517;-75
2022/10/04 08:03:14;;;;;;;2.83;2.73;;;11.10;86.70;;;;;;4975845;28;20880;-75
2022/10/04 08:05:46;;;;;;;0.90;0.90;;;11.20;86.80;;;;;;4976123;28;20430;-76
2022/10/04 08:08:49;;;;;;;0.80;0.80;;;11.20;86.80;;;;;;4976072;28;20454;-74
2022/10/04 08:11:24;;;;;;;1.00;1.00;;;11.30;86.60;;;;;;4975942;28;20473;-74
2022/10/04 08:13:57;;;;;;;1.10;1.00;;;11.20;86.50;;;;;;4975956;28;20430;-75
2022/10/04 08:16:35;;;;;;;1.10;1.00;;;11.30;86.80;;;;;;4975986;28;20434;-75
2022/10/04 08:19:20;;;;;;;1.63;1.00;;;11.30;86.60;;;;;;4975586;28;20465;-76
2022/10/04 08:21:55;;;;;;;1.73;1.63;;;11.20;87.50;;;;;;4975670;28;20470;-76
2022/10/04 08:24:28;;;;;;;1.00;1.00;;;11.00;88.30;;;;;;4985241;28;20441;-76
2022/10/04 08:27:21;;;;;;;0.90;0.90;;;11.00;88.10;;;;;;4986044;28;20439;-77
2022/10/04 08:30:02;;;;;;;0.80;0.80;;;11.10;88.30;;;;;;4984469;28;20447;-76
2022/10/04 08:33:05;;;;;;;0.77;0.77;;;11.30;87.80;;;;;;4984772;28;20874;-75
2022/10/04 08:35:36;;;;;;;1.07;0.90;;;11.40;87.80;;;;;;4954141;28;20533;-75
2022/10/04 08:38:42;;;;;;;0.80;0.80;;;11.40;86.80;;;;;;4975817;28;20471;-75
2022/10/04 08:41:42;;;;;;;0.80;0.80;;;11.40;86.90;;;;;;4975553;28;20501;-75
2022/10/04 08:44:51;;;;;;;0.80;0.80;;;11.40;87.40;;;;;;4975600;28;20437;-76
2022/10/04 08:47:56;;;;;;;1.07;0.90;;;11.50;86.90;;;;;;4975222;28;20427;-76
2022/10/04 08:50:58;;;;;;;0.80;0.80;;;11.50;86.90;;;;;;4975226;28;20418;-76
2022/10/04 08:53:52;;;;;;;0.93;0.83;;;11.80;87.90;;;;;;4975127;28;20439;-76
2022/10/04 08:56:31;;;;;;;1.10;1.00;;;12.20;85.90;;;;;;4975039;28;20442;-75
2022/10/04 08:59:24;;;;;;;0.80;0.80;;;12.50;85.80;;;;;;4975033;28;20839;-75
2022/10/04 09:02:15;;;;;;;0.80;0.80;;;12.80;85.20;;;;;;4974629;28;20497;-76
2022/10/04 09:05:00;;;;;;;0.80;0.80;;;13.10;83.40;;;;;;4972513;28;20968;-76
2022/10/04 09:07:56;;;;;;;0.70;0.70;;;13.30;82.50;;;;;;4974976;28;20427;-76
2022/10/04 09:10:39;;;;;;;0.83;0.83;;;13.30;82.00;;;;;;4974663;28;20890;-76
2022/10/04 09:13:30;;;;;;;0.80;0.80;;;13.40;81.20;;;;;;4975254;28;20431;-76
2022/10/04 09:16:17;;;;;;;0.70;0.70;;;13.50;82.30;;;;;;4976052;28;20776;-76
2022/10/04 09:19:12;;;;;;;0.70;0.70;;;13.50;81.10;;;;;;4974864;28;20474;-76
2022/10/04 09:22:00;;;;;;;0.80;0.70;;;13.60;81.60;;;;;;4974404;28;20477;-77
2022/10/04 09:24:47;;;;;;;0.80;0.80;;;13.90;81.30;;;;;;4974463;28;20903;-76
2022/10/04 09:27:33;;;;;;;1.13;1.03;;;14.00;79.50;;;;;;4975572;28;20445;-77
2022/10/04 09:30:12;;;;;;;1.10;1.00;;;13.90;78.90;;;;;;4974749;28;20434;-76
2022/10/04 09:33:12;;;;;;;0.80;0.80;;;14.00;80.20;;;;;;4974680;28;20482;-76
2022/10/04 09:36:03;;;;;;;0.70;0.70;;;14.20;78.70;;;;;;4974755;28;20838;-75
2022/10/04 09:39:15;;;;;;;1.07;1.00;;;14.00;77.90;;;;;;4975140;28;20437;-76
2022/10/04 09:42:15;;;;;;;0.80;0.80;;;14.10;77.50;;;;;;4947167;28;20477;-76
2022/10/04 09:45:16;;;;;;;0.63;0.60;;;13.90;78.60;;;;;;4939573;28;20458;-76
2022/10/04 09:47:56;;;;;;;0.80;0.80;;;13.90;77.70;;;;;;4974578;28;20434;-76
2022/10/04 09:50:46;;;;;;;1.03;0.70;;;13.80;77.70;;;;;;4974511;28;20422;-75
2022/10/04 09:53:34;;;;;;;0.87;0.87;;;13.90;78.70;;;;;;4974546;28;20493;-76
2022/10/04 09:56:30;;;;;;;0.90;0.80;;;14.00;79.40;;;;;;4974383;28;20438;-75
2022/10/04 09:59:55;;;;;;;0.80;0.80;;;14.10;79.50;;;;;;4974486;28;20536;-76
2022/10/04 10:02:46;;;;;;;0.90;0.80;;;14.40;79.40;;;;;;4882619;29;21054;-76
2022/10/04 10:05:28;;;;;;;0.70;0.70;;;14.50;77.20;;;;;;4974095;28;20434;-75
2022/10/04 10:08:08;;;;;;;0.70;0.70;;;14.50;76.60;;;;;;4974356;28;20434;-76
2022/10/04 10:13:57;;;;;;;0.70;0.70;;;14.60;76.10;;;;;;4974680;28;20406;-76
2022/10/04 10:16:40;;;;;;;0.60;0.60;;;14.60;76.60;;;;;;4978030;28;20446;-76
2022/10/04 10:19:30;;;;;;;0.60;0.60;;;14.70;75.30;;;;;;4977996;28;20525;-76
2022/10/04 10:22:12;;;;;;;0.70;0.70;;;14.60;76.90;;;;;;4977580;28;21008;-76
2022/10/04 10:25:17;;;;;;;0.80;0.70;;;14.60;77.20;;;;;;4978015;28;20453;-77
2022/10/04 10:27:54;;;;;;;0.83;0.60;;;14.90;77.30;;;;;;4971704;28;20450;-75
2022/10/04 10:30:25;;;;;;;0.70;0.70;;;15.10;76.80;;;;;;4977879;28;20433;-76
2022/10/04 10:33:25;;;;;;;0.80;0.70;;;15.10;76.80;;;;;;4977883;28;20489;-76
2022/10/04 10:36:12;;;;;;;0.80;0.80;;;14.90;76.20;;;;;;4978392;28;20946;-76
2022/10/04 10:38:53;;;;;;;0.70;0.70;;;14.80;77.20;;;;;;4975341;28;20465;-77
2022/10/04 10:41:48;;;;;;;0.70;0.70;;;14.90;78.40;;;;;;4980671;28;20462;-75
2022/10/04 10:44:34;;;;;;;0.73;0.73;;;15.10;77.60;;;;;;4977704;28;20439;-76
2022/10/04 10:47:28;;;;;;;0.90;0.70;;;15.00;76.50;;;;;;4977872;28;20438;-76
2022/10/04 10:50:16;;;;;;;0.73;0.73;;;15.20;76.30;;;;;;4977616;28;20470;-76
2022/10/04 10:53:20;;;;;;;0.80;0.80;;;15.20;76.50;;;;;;4977448;28;20473;-75
2022/10/04 10:56:30;;;;;;;0.60;0.60;;;15.50;76.60;;;;;;4978145;28;20521;-76
2022/10/04 10:59:36;;;;;;;0.70;0.70;;;15.60;76.50;;;;;;4976990;28;20942;-76
2022/10/04 11:02:46;;;;;;;0.70;0.70;;;15.80;75.60;;;;;;4978380;28;20482;-76
2022/10/04 11:05:42;;;;;;;0.70;0.70;;;16.00;75.50;;;;;;4986110;28;20445;-76
2022/10/04 11:08:31;;;;;;;0.70;0.70;;;16.30;74.70;;;;;;4991863;28;20462;-77
2022/10/04 11:11:18;;;;;;;0.70;0.70;;;16.20;74.00;;;;;;4992083;28;20469;-77
2022/10/04 11:14:32;;;;;;;0.70;0.70;;;16.20;75.60;;;;;;4991801;28;20428;-76
2022/10/04 11:17:29;;;;;;;0.60;0.60;;;16.30;73.30;;;;;;4957071;28;20482;-76
2022/10/04 11:20:24;;;;;;;0.70;0.70;;;16.20;74.30;;;;;;4991575;28;20966;-76
2022/10/04 11:23:37;;;;;;;0.90;0.80;;;16.30;75.30;;;;;;4985761;28;20485;-77
2022/10/04 11:26:27;;;;;;;0.70;0.60;;;16.50;74.50;;;;;;4984905;28;20446;-78
2022/10/04 11:28:59;;;;;;;0.70;0.60;;;16.60;74.30;;;;;;4985285;28;20517;-76
2022/10/04 11:31:45;;;;;;;0.60;0.50;;;16.70;74.30;;;;;;4986757;28;20485;-76
2022/10/04 11:34:38;;;;;;;0.80;0.80;;;16.90;72.70;;;;;;4984593;28;20430;-77
2022/10/04 11:37:12;;;;;;;0.70;0.67;;;17.10;73.10;;;;;;4983249;28;20455;-78
2022/10/04 11:40:03;;;;;;;0.97;0.80;;;17.20;73.60;;;;;;4982915;28;20562;-77
2022/10/04 11:42:44;;;;;;;0.70;0.70;;;17.30;72.30;;;;;;4981939;28;20561;-78
2022/10/04 11:45:37;;;;;;;0.67;0.60;;;17.40;73.10;;;;;;4982612;28;20439;-77
2022/10/04 11:48:19;;;;;;;0.67;0.63;;;17.40;72.30;;;;;;4987842;28;20473;-77
2022/10/04 11:51:20;;;;;;;0.67;0.63;;;17.50;71.30;;;;;;4987103;28;20552;-78
2022/10/04 11:54:27;;;;;;;0.70;0.60;;;18.00;71.80;;;;;;4978297;28;20478;-77
2022/10/04 11:57:20;;;;;;;0.60;0.60;;;17.90;70.10;;;;;;4980783;28;20517;-77
2022/10/04 11:59:59;;;;;;;0.70;0.60;;;18.00;70.30;;;;;;4982338;28;20958;-78
2022/10/04 12:03:08;;;;;;;0.70;0.67;;;17.90;70.30;;;;;;4982008;28;20989;-78
2022/10/04 12:06:00;;;;;;;0.60;0.60;;;18.20;71.00;;;;;;4983389;28;20438;-78
2022/10/04 12:08:38;;;;;;;0.70;0.60;;;18.70;70.10;;;;;;4982738;28;20439;-76
2022/10/04 12:14:33;;;;;;;0.80;0.70;;;18.90;68.40;;;;;;4982284;28;20526;-77
2022/10/04 12:17:37;;;;;;;0.60;0.60;;;18.80;67.20;;;;;;4982462;28;20441;-78
2022/10/04 12:20:27;;;;;;;0.60;0.50;;;18.70;67.00;;;;;;4983483;28;20478;-76
2022/10/04 12:23:20;;;;;;;0.70;0.70;;;19.00;67.10;;;;;;4980453;28;20513;-77
2022/10/04 12:26:08;;;;;;;0.60;0.60;;;19.20;66.60;;;;;;4980240;28;20445;-76
2022/10/04 12:29:01;;;;;;;1.53;0.63;;;19.70;66.10;;;;;;4979935;28;20466;-77
2022/10/04 12:31:32;;;;;;;0.70;0.60;;;19.60;65.00;;;;;;4980735;28;20459;-76
2022/10/04 12:34:13;;;;;;;0.70;0.60;;;19.80;66.40;;;;;;4980271;28;20450;-76
2022/10/04 12:37:00;;;;;;;0.60;0.50;;;20.10;64.00;;;;;;4976672;28;20442;-75
2022/10/04 12:39:57;;;;;;;0.70;0.60;;;20.20;62.50;;;;;;4975596;28;20445;-75
2022/10/04 12:42:34;;;;;;;0.60;0.60;;;20.40;63.70;;;;;;4951352;28;20477;-75
2022/10/04 12:45:28;;;;;;;0.70;0.60;;;20.50;64.10;;;;;;4975072;28;20948;-76
2022/10/04 12:48:07;;;;;;;0.80;0.60;;;20.80;62.00;;;;;;4975237;28;20851;-75
2022/10/04 12:50:53;;;;;;;0.90;0.50;;;21.20;61.10;;;;;;4975188;28;20422;-75
2022/10/04 12:53:34;;;;;;;0.80;0.80;;;21.40;59.30;;;;;;4974393;28;20472;-76
2022/10/04 12:56:20;;;;;;;0.60;0.57;;;21.20;59.00;;;;;;4975512;28;20524;-76
2022/10/04 12:59:36;;;;;;;0.73;0.73;;;21.30;60.10;;;;;;4975256;28;20434;-75
2022/10/04 13:02:19;;;;;;;0.70;0.60;;;21.80;58.70;;;;;;4970200;28;20482;-76
2022/10/04 13:04:52;;;;;;;0.70;0.63;;;22.00;57.70;;;;;;4975487;28;20441;-76
2022/10/04 13:07:32;;;;;;;0.60;0.50;;;22.00;56.70;;;;;;4975675;28;20445;-76
2022/10/04 13:10:13;;;;;;;0.60;0.50;;;22.10;57.20;;;;;;4975636;28;20430;-76
2022/10/04 13:13:28;;;;;;;0.60;0.53;;;22.40;58.20;;;;;;4975800;28;20473;-76
2022/10/04 13:16:04;;;;;;;0.60;0.50;;;22.20;57.00;;;;;;4981891;28;20427;-77
2022/10/04 13:18:40;;;;;;;0.60;0.50;;;22.10;57.00;;;;;;4978744;28;20430;-75
2022/10/04 13:21:10;;;;;;;1.53;0.70;;;22.10;55.60;;;;;;4975602;28;20489;-75
2022/10/04 13:23:51;;;;;;;0.60;0.50;;;22.50;56.10;;;;;;4975199;28;20462;-77
2022/10/04 13:26:43;;;;;;;0.60;0.60;;;22.90;54.90;;;;;;4976454;28;20489;-76
2022/10/04 13:29:20;;;;;;;0.60;0.60;;;23.40;54.40;;;;;;4975507;28;20525;-76
2022/10/04 13:31:51;;;;;;;0.60;0.60;;;23.70;53.20;;;;;;4975287;28;20462;-76
2022/10/04 13:34:27;;;;;;;0.60;0.50;;;24.00;53.70;;;;;;4976075;28;20969;-75
2022/10/04 13:37:25;;;;;;;0.60;0.57;;;23.80;51.70;;;;;;4975029;28;20434;-77
2022/10/04 13:40:34;;;;;;;0.60;0.60;;;24.10;53.10;;;;;;4975807;28;20907;-77
2022/10/04 13:43:26;;;;;;;0.70;0.63;;;24.50;50.90;;;;;;4975016;28;20434;-76
2022/10/04 13:46:06;;;;;;;0.60;0.50;;;25.50;49.90;;;;;;4975173;28;20485;-76
2022/10/04 13:48:48;;;;;;;0.60;0.50;;;26.80;47.20;;;;;;4975921;28;20434;-76
2022/10/04 13:51:46;;;;;;;0.70;0.60;;;28.80;44.50;;;;;;4978835;28;20470;-76
2022/10/04 13:57:23;;;;;;;0.70;0.60;;;31.70;38.70;;;;;;4979045;28;20909;-76
2022/10/04 13:59:55;;;;;;;0.70;0.60;;;33.20;37.80;;;;;;4977887;28;20426;-76
2022/10/04 14:02:47;;;;;;;0.60;0.50;;;34.40;36.60;;;;;;4978145;28;20482;-78
2022/10/04 14:05:53;;;;;;;0.60;0.50;;;36.30;34.90;;;;;;4978574;28;20858;-76
2022/10/04 14:08:56;;;;;;;0.87;0.60;;;37.60;32.00;;;;;;4978308;28;20536;-76
2022/10/04 14:11:50;;;;;;;0.70;0.50;;;37.60;32.50;;;;;;4977782;28;20469;-77
2022/10/04 14:14:48;;;;;;;0.60;0.50;;;37.70;33.10;;;;;;4978082;28;20456;-77
2022/10/04 14:17:32;;;;;;;0.90;0.60;;;38.20;33.10;;;;;;4977728;28;20980;-77
2022/10/04 14:20:35;;;;;;;0.60;0.60;;;39.40;31.90;;;;;;4981254;28;20441;-76
2022/10/04 14:23:25;;;;;;;0.93;0.60;;;40.00;32.40;;;;;;4982263;28;20960;-76
2022/10/04 14:26:18;;;;;;;0.80;0.70;;;40.80;32.10;;;;;;4971816;28;20537;-78
2022/10/04 14:29:27;;;;;;;1.27;0.67;;;41.20;31.50;;;;;;4977874;28;20441;-77
2022/10/04 14:32:30;;;;;;;0.73;0.60;;;41.20;31.30;;;;;;4978248;28;20313;-77
2022/10/04 14:35:01;;;;;;;0.80;0.70;;;40.30;31.70;;;;;;4977771;28;20469;-77
2022/10/04 14:38:06;;;;;;;0.70;0.70;;;39.50;32.10;;;;;;4977807;28;20437;-77
2022/10/04 14:40:47;;;;;;;0.90;0.60;;;38.60;32.70;;;;;;4977466;28;20473;-76
2022/10/04 14:43:46;;;;;;;1.30;0.70;;;36.90;34.20;;;;;;4977641;28;20851;-76
2022/10/04 14:46:23;;;;;;;0.80;0.60;;;36.60;35.40;;;;;;4977165;28;20434;-76
2022/10/04 14:49:02;;;;;;;1.10;0.60;;;35.70;36.60;;;;;;4977544;28;20787;-76
2022/10/04 14:51:48;;;;;;;0.80;0.70;;;34.40;38.20;;;;;;4977266;28;20469;-75
2022/10/04 14:54:29;;;;;;;0.77;0.70;;;32.70;40.00;;;;;;4977370;28;20434;-76
2022/10/04 14:57:00;;;;;;;0.60;0.60;;;32.30;41.10;;;;;;4977227;28;20448;-76
2022/10/04 14:59:41;;;;;;;0.80;0.60;;;32.80;40.40;;;;;;4976692;28;20439;-77
2022/10/04 15:02:35;;;;;;;0.80;0.80;;;32.80;40.90;;;;;;4976642;28;20494;-77
2022/10/04 15:05:27;;;;;;;0.70;0.60;;;32.10;41.30;;;;;;4977039;28;20442;-77
2022/10/04 15:07:58;;;;;;;0.70;0.60;;;31.80;42.30;;;;;;4978948;28;20453;-76
2022/10/04 15:10:29;;;;;;;0.70;0.67;;;31.90;42.00;;;;;;4983118;28;20430;-76
2022/10/04 15:13:00;;;;;;;0.70;0.70;;;30.60;43.90;;;;;;4982779;28;20434;-77
2022/10/04 15:15:51;;;;;;;0.60;0.60;;;29.00;45.90;;;;;;4983565;28;20446;-77
2022/10/04 15:18:36;;;;;;;0.80;0.70;;;27.10;49.10;;;;;;4983103;28;20435;-76
2022/10/04 15:21:11;;;;;;;0.73;0.60;;;25.70;52.00;;;;;;4982262;28;20494;-76
2022/10/04 15:23:42;;;;;;;0.90;0.70;;;24.10;55.70;;;;;;4983100;28;20806;-79
2022/10/04 15:26:40;;;;;;;0.70;0.70;;;23.50;57.30;;;;;;4984656;28;20485;-76
2022/10/04 15:29:22;;;;;;;0.70;0.60;;;22.70;59.30;;;;;;4985178;28;20814;-78
2022/10/04 15:31:56;;;;;;;0.80;0.60;;;21.70;61.80;;;;;;4976627;28;20470;-75
2022/10/04 15:34:33;;;;;;;0.80;0.70;;;21.10;63.40;;;;;;4976683;28;20435;-76
2022/10/04 15:37:08;;;;;;;1.17;0.70;;;20.60;65.10;;;;;;4976740;28;20438;-76
2022/10/04 15:40:13;;;;;;;0.70;0.60;;;20.40;65.60;;;;;;4976680;28;20529;-76
2022/10/04 15:43:14;;;;;;;0.90;0.70;;;20.10;66.90;;;;;;4976505;28;20578;-76
2022/10/04 15:46:23;;;;;;;0.60;0.50;;;19.70;67.80;;;;;;4976456;28;20481;-76
2022/10/04 15:49:04;;;;;;;0.77;0.70;;;19.70;68.30;;;;;;4976441;28;20446;-76
2022/10/04 15:52:01;;;;;;;0.70;0.60;;;19.50;68.30;;;;;;4976380;28;20520;-76
2022/10/04 15:55:10;;;;;;;0.80;0.80;;;19.40;68.50;;;;;;4976354;28;20461;-76
2022/10/04 15:57:55;;;;;;;0.73;0.73;;;19.30;68.80;;;;;;4955889;28;20466;-76
2022/10/04 16:00:25;;;;;;;1.00;0.80;;;19.20;69.30;;;;;;4976199;28;20517;-76
2022/10/04 16:03:15;;;;;;;0.80;0.70;;;19.20;69.80;;;;;;4975885;28;20485;-76
2022/10/04 16:05:46;;;;;;;0.80;0.80;;;19.20;69.80;;;;;;4976260;28;20439;-76
2022/10/04 16:08:47;;;;;;;1.00;0.70;;;19.40;69.40;;;;;;4976095;28;20446;-77
2022/10/04 16:11:34;;;;;;;0.70;0.63;;;19.50;69.30;;;;;;4950546;28;20469;-76
2022/10/04 16:14:10;;;;;;;1.10;0.70;;;19.60;69.30;;;;;;4975569;28;20938;-76
2022/10/04 16:17:22;;;;;;;1.17;0.67;;;19.80;69.10;;;;;;4975942;28;20435;-76
2022/10/04 16:20:21;;;;;;;0.90;0.80;;;19.80;68.90;;;;;;4941115;28;20953;-76
2022/10/04 16:23:23;;;;;;;0.67;0.63;;;19.80;69.00;;;;;;4975917;28;20489;-76
2022/10/04 16:25:51;;;;;;;0.90;0.67;;;19.90;69.30;;;;;;4975941;28;20470;-76
2022/10/04 16:28:38;;;;;;;0.67;0.60;;;19.90;69.40;;;;;;4975737;28;20446;-75
2022/10/04 16:31:23;;;;;;;0.80;0.80;;;19.90;69.70;;;;;;4973244;28;20486;-76
2022/10/04 16:34:00;;;;;;;0.70;0.60;;;19.90;69.70;;;;;;4976329;28;20450;-76
2022/10/04 16:36:42;;;;;;;0.80;0.67;;;19.80;69.80;;;;;;4975815;28;20445;-77
2022/10/04 16:42:02;;;;;;;1.40;0.70;;;19.70;70.40;;;;;;4977201;28;20493;-76
2022/10/04 16:44:38;;;;;;;0.70;0.60;;;19.60;70.50;;;;;;4975478;28;20443;-76
2022/10/04 16:47:22;;;;;;;1.80;0.70;;;19.50;70.50;;;;;;4975294;28;20445;-76
2022/10/04 16:49:53;;;;;;;0.70;0.60;;;19.40;70.70;;;;;;4975412;28;20501;-76
2022/10/04 16:52:44;;;;;;;0.70;0.70;;;19.20;71.20;;;;;;4981534;28;20474;-79
2022/10/04 16:55:42;;;;;;;0.80;0.80;;;19.10;71.50;;;;;;4974662;28;20533;-76
2022/10/04 16:58:42;;;;;;;0.70;0.70;;;19.10;71.70;;;;;;4980412;28;20853;-77
2022/10/04 17:01:50;;;;;;;0.70;0.70;;;18.90;72.30;;;;;;4981650;28;20573;-78
2022/10/04 17:04:50;;;;;;;0.80;0.80;;;18.80;72.50;;;;;;4981303;28;20462;-78
2022/10/04 17:07:27;;;;;;;0.67;0.67;;;18.70;72.80;;;;;;4981597;28;20454;-77
2022/10/04 17:09:58;;;;;;;0.70;0.70;;;18.60;73.00;;;;;;4981322;28;20430;-77
2022/10/04 17:12:34;;;;;;;0.70;0.70;;;18.50;73.30;;;;;;4981725;28;20459;-77
2022/10/04 17:15:26;;;;;;;0.90;0.90;;;18.50;73.60;;;;;;4981998;28;20430;-77
2022/10/04 17:18:00;;;;;;;0.73;0.70;;;18.40;73.70;;;;;;4972784;28;20493;-76
2022/10/04 17:20:39;;;;;;;0.90;0.90;;;18.30;73.90;;;;;;4980122;28;20426;-79
2022/10/04 17:23:20;;;;;;;0.87;0.87;;;18.30;74.00;;;;;;4981863;28;21005;-78
2022/10/04 17:25:55;;;;;;;0.90;0.90;;;18.20;74.10;;;;;;4980942;28;20446;-77
2022/10/04 17:28:29;;;;;;;1.47;0.80;;;18.10;74.30;;;;;;4980979;28;20468;-77